Düsseldorf Airport

EDDL · North Rhine-Westphalia, Germany

METAR history EDDL · Düsseldorf Airport

Below you see METARs of the last few days. Select a year to browse through older METARs, from the year 2007 onwards.

April 15, 2024

Time Code Weather Temp. Visibility Ceiling Wind METAR/SPECI
04:50
V
7 °C 10 km+ - 210° 210° 7 kt METAR EDDL 150250Z AUTO 21007KT 9999 FEW049 07/06 Q1014 NOSIG
04:20
V
7 °C 10 km+ - 200° 200° 6 kt METAR EDDL 150220Z AUTO 20006KT 9999 FEW040 07/06 Q1014 NOSIG
03:50
V
9 °C 10 km+ - 160° 160° 5 kt METAR EDDL 150150Z AUTO 16005KT 9999 SCT036 09/07 Q1014 NOSIG
03:20
V
9 °C 10 km+ 3,900 ft 140° 140° 3 kt METAR EDDL 150120Z AUTO 14003KT 9999 BKN039 09/07 Q1014 NOSIG
02:50
V
9 °C 10 km+ - Var Var 1 kt METAR EDDL 150050Z AUTO VRB01KT 9999 SCT040 09/07 Q1015 NOSIG
02:20
V
9 °C 10 km+ - Var Var 2 kt METAR EDDL 150020Z AUTO VRB02KT 9999 -RA FEW024 SCT043 09/07 Q1016 NOSIG
01:50
M
10 °C 10 km+ 2,300 ft 240° 240° 10 kt METAR EDDL 142350Z AUTO 24010KT 9999 -RA BKN023 BKN030 OVC044 10/08 Q1016 NOSIG
01:20
V
10 °C 10 km+ 4,500 ft 210° 210° 10 kt METAR EDDL 142320Z AUTO 21010KT 9999 -RA BKN045 10/07 Q1016 NOSIG
00:50
V
11 °C 10 km+ - 210° 210° 12 kt METAR EDDL 142250Z AUTO 21012KT 9999 -RA FEW045 11/07 Q1016 NOSIG
00:20
V
12 °C 10 km+ - Var Var 4 kt METAR EDDL 142220Z AUTO VRB04KT 9999 -RA FEW021 12/05 Q1017 NOSIG

April 14, 2024

Time Code Weather Temp. Visibility Ceiling Wind METAR/SPECI
23:50
V
11 °C 10 km+ - 070° 070° 3 kt METAR EDDL 142150Z AUTO 07003KT 050V190 9999 -RA FEW032 11/07 Q1017 NOSIG
23:20
V
12 °C 10 km+ - Var Var 1 kt METAR EDDL 142120Z AUTO VRB01KT 9999 FEW049 12/06 Q1017 NOSIG
22:50
V
12 °C 10 km+ - 010° 010° 4 kt METAR EDDL 142050Z AUTO 01004KT CAVOK 12/06 Q1017 NOSIG
22:20
V
12 °C 10 km+ - Var Var 2 kt METAR EDDL 142020Z AUTO VRB02KT CAVOK 12/05 Q1018 NOSIG
21:50
V
12 °C 10 km+ - 040° 040° 3 kt METAR EDDL 141950Z AUTO 04003KT CAVOK 12/04 Q1018 NOSIG
21:20
V
11 °C 10 km+ - 040° 040° 4 kt METAR EDDL 141920Z AUTO 04004KT 360V060 CAVOK 11/06 Q1018 NOSIG
20:50
V
13 °C 10 km+ - 350° 350° 5 kt METAR EDDL 141850Z AUTO 35005KT CAVOK 13/05 Q1018 NOSIG
20:20
V
13 °C 10 km+ - 340° 340° 3 kt METAR EDDL 141820Z AUTO 34003KT CAVOK 13/05 Q1019 NOSIG
19:50
V
14 °C 10 km+ - 330° 330° 4 kt METAR EDDL 141750Z AUTO 33004KT CAVOK 14/05 Q1019 NOSIG
19:20
V
14 °C 10 km+ - 340° 340° 5 kt METAR EDDL 141720Z AUTO 34005KT CAVOK 14/05 Q1019 NOSIG
18:50
V
15 °C 10 km+ - 310° 310° 5 kt METAR EDDL 141650Z AUTO 31005KT 280V340 CAVOK 15/05 Q1020 NOSIG
18:20
V
15 °C 10 km+ - 320° 320° 5 kt METAR EDDL 141620Z AUTO 32005KT 300V360 CAVOK 15/05 Q1020 NOSIG
17:50
V
16 °C 10 km+ - 290° 290° 6 kt METAR EDDL 141550Z AUTO 29006KT 260V330 CAVOK 16/05 Q1020 NOSIG
17:20
V
16 °C 10 km+ - 300° 300° 6 kt METAR EDDL 141520Z AUTO 30006KT 240V330 CAVOK 16/05 Q1020 NOSIG
16:50
V
16 °C 10 km+ - 270° 270° 8 kt METAR EDDL 141450Z AUTO 27008KT 230V330 9999 FEW048 16/06 Q1021 NOSIG
16:20
V
16 °C 10 km+ - 280° 280° 9 kt METAR EDDL 141420Z AUTO 28009KT CAVOK 16/04 Q1021 NOSIG
15:50
V
16 °C 10 km+ - 310° 310° 8 kt METAR EDDL 141350Z AUTO 31008KT 260V330 9999 FEW047 16/05 Q1021 NOSIG
15:20
V
16 °C 10 km+ - 310° 310° 9 kt METAR EDDL 141320Z AUTO 31009KT 250V020 CAVOK 16/06 Q1022 NOSIG
14:50
V
16 °C 10 km+ - 280° 280° 9 kt METAR EDDL 141250Z AUTO 28009KT 230V320 9999 SCT048 16/05 Q1022 NOSIG
14:20
V
16 °C 10 km+ - 290° 290° 10 kt METAR EDDL 141220Z AUTO 29010KT 230V330 9999 FEW044 16/06 Q1022 NOSIG
13:50
V
16 °C 10 km+ - 330° 330° 10 kt METAR EDDL 141150Z AUTO 33010KT 290V350 9999 FEW044 16/06 Q1023 NOSIG
13:20
V
15 °C 10 km+ - 270° 270° 12 kt METAR EDDL 141120Z AUTO 27012KT 230V290 9999 SCT043 15/06 Q1023 NOSIG
12:50
V
15 °C 10 km+ - 270° 270° 10 kt METAR EDDL 141050Z AUTO 27010KT 230V300 9999 FEW039 15/06 Q1023 NOSIG
12:20
V
15 °C 10 km+ - 260° 260° 7 kt METAR EDDL 141020Z AUTO 26007KT 210V290 9999 SCT043 15/07 Q1023 NOSIG
11:50
V
15 °C 10 km+ - 270° 270° 9 kt METAR EDDL 140950Z AUTO 27009KT 230V300 9999 FEW025 15/08 Q1023 NOSIG
11:20
V
14 °C 10 km+ 4,600 ft 280° 280° 8 kt METAR EDDL 140920Z AUTO 28008KT 240V310 9999 BKN046 14/08 Q1023 NOSIG
10:50
V
14 °C 10 km+ 4,500 ft 280° 280° 7 kt METAR EDDL 140850Z AUTO 28007KT 240V300 9999 FEW022 BKN045 14/09 Q1023 NOSIG
10:20
V
14 °C 10 km+ 4,100 ft 270° 270° 7 kt METAR EDDL 140820Z AUTO 27007KT 230V330 9999 BKN041 14/09 Q1023 NOSIG
09:50
V
13 °C 10 km+ 3,800 ft 280° 280° 8 kt METAR EDDL 140750Z AUTO 28008KT 250V310 9999 BKN038 13/09 Q1022 NOSIG
09:20
V
13 °C 10 km+ 3,800 ft 300° 300° 7 kt METAR EDDL 140720Z AUTO 30007KT 260V320 9999 BKN038 13/08 Q1022 NOSIG
08:50
V
13 °C 10 km+ 3,800 ft 270° 270° 8 kt METAR EDDL 140650Z AUTO 27008KT 9999 BKN038 13/09 Q1022 NOSIG
08:20
V
12 °C 10 km+ - 270° 270° 7 kt METAR EDDL 140620Z AUTO 27007KT 240V300 9999 SCT040 12/08 Q1022 NOSIG
07:50
V
12 °C 10 km+ - 270° 270° 8 kt METAR EDDL 140550Z AUTO 27008KT 9999 SCT041 12/08 Q1022 NOSIG
07:20
V
12 °C 10 km+ - 270° 270° 7 kt METAR EDDL 140520Z AUTO 27007KT 9999 SCT041 12/08 Q1021 NOSIG
06:50
V
13 °C 10 km+ 3,400 ft 270° 270° 8 kt METAR EDDL 140450Z AUTO 27008KT 9999 BKN034 BKN041 13/08 Q1021 NOSIG
06:20
V
13 °C 10 km+ 3,300 ft 260° 260° 7 kt METAR EDDL 140420Z AUTO 26007KT 9999 BKN033 OVC044 13/07 Q1021 NOSIG
05:50
V
13 °C 10 km+ 3,800 ft 260° 260° 6 kt METAR EDDL 140350Z AUTO 26006KT 9999 OVC038 13/07 Q1021 NOSIG
05:20
V
13 °C 10 km+ - 260° 260° 5 kt METAR EDDL 140320Z AUTO 26005KT 9999 SCT037 13/07 Q1021
04:50
V
14 °C 10 km+ 3,300 ft 270° 270° 6 kt METAR EDDL 140250Z AUTO 27006KT 9999 BKN033 14/06 Q1021 NOSIG
04:20
V
14 °C 10 km+ - 280° 280° 8 kt METAR EDDL 140220Z AUTO 28008KT 9999 FEW034 14/06 Q1021 NOSIG
03:50
V
14 °C 10 km+ - 280° 280° 7 kt METAR EDDL 140150Z AUTO 28007KT CAVOK 14/05 Q1021 NOSIG
03:20
V
15 °C 10 km+ - 280° 280° 9 kt METAR EDDL 140120Z AUTO 28009KT CAVOK 15/05 Q1020 NOSIG
02:50
V
16 °C 10 km+ - 290° 290° 9 kt METAR EDDL 140050Z AUTO 29009KT CAVOK 16/06 Q1020 NOSIG
02:20
V
17 °C 10 km+ - 270° 270° 10 kt METAR EDDL 140020Z AUTO 27010KT CAVOK 17/09 Q1020 NOSIG
01:50
V
18 °C 10 km+ - 260° 260° 10 kt METAR EDDL 132350Z AUTO 26010KT CAVOK 18/10 Q1020 NOSIG
01:20
V
17 °C 10 km+ - 250° 250° 8 kt METAR EDDL 132320Z AUTO 25008KT CAVOK 17/13 Q1019 BECMG 27013KT
00:50
V
17 °C 10 km+ - 230° 230° 10 kt METAR EDDL 132250Z AUTO 23010KT 9999 FEW046 17/13 Q1019 NOSIG
00:20
V
18 °C 10 km+ - 220° 220° 10 kt METAR EDDL 132220Z AUTO 22010KT CAVOK 18/13 Q1019 BECMG 28012KT

April 13, 2024

Time Code Weather Temp. Visibility Ceiling Wind METAR/SPECI
23:50
V
17 °C 10 km+ - 210° 210° 11 kt METAR EDDL 132150Z AUTO 21011KT CAVOK 17/13 Q1019 BECMG 27011KT
23:20
V
17 °C 10 km+ - 210° 210° 9 kt METAR EDDL 132120Z AUTO 21009KT CAVOK 17/13 Q1019 BECMG 27011KT
22:50
V
17 °C 10 km+ - 220° 220° 8 kt METAR EDDL 132050Z AUTO 22008KT CAVOK 17/13 Q1019 NOSIG
22:20
V
16 °C 10 km+ - 220° 220° 9 kt METAR EDDL 132020Z AUTO 22009KT CAVOK 16/13 Q1019 NOSIG
21:50
V
17 °C 10 km+ - 220° 220° 9 kt METAR EDDL 131950Z AUTO 22009KT CAVOK 17/13 Q1019 NOSIG
21:20
V
18 °C 10 km+ - 220° 220° 9 kt METAR EDDL 131920Z AUTO 22009KT CAVOK 18/12 Q1019 NOSIG
20:50
V
19 °C 10 km+ - 220° 220° 9 kt METAR EDDL 131850Z AUTO 22009KT CAVOK 19/12 Q1019 NOSIG
20:20
V
21 °C 10 km+ - 230° 230° 10 kt METAR EDDL 131820Z AUTO 23010KT CAVOK 21/12 Q1019 NOSIG
19:50
V
22 °C 10 km+ - 230° 230° 10 kt METAR EDDL 131750Z AUTO 23010KT CAVOK 22/12 Q1019 NOSIG
19:20
V
23 °C 10 km+ - 240° 240° 12 kt METAR EDDL 131720Z AUTO 24012KT CAVOK 23/13 Q1019 NOSIG
18:50
V
23 °C 10 km+ - 240° 240° 9 kt METAR EDDL 131650Z AUTO 24009KT CAVOK 23/13 Q1020 NOSIG
18:20
V
24 °C 10 km+ - 250° 250° 11 kt METAR EDDL 131620Z AUTO 25011KT CAVOK 24/13 Q1020 NOSIG
17:50
V
24 °C 10 km+ - 250° 250° 12 kt METAR EDDL 131550Z AUTO 25012KT CAVOK 24/12 Q1020 NOSIG
17:20
V
24 °C 10 km+ - 230° 230° 14 kt METAR EDDL 131520Z AUTO 23014KT CAVOK 24/12 Q1020 NOSIG
16:50
V
24 °C 10 km+ - 250° 250° 12 kt METAR EDDL 131450Z AUTO 25012KT CAVOK 24/13 Q1021 NOSIG
16:20
V
24 °C 10 km+ - 220° 220° 9 kt METAR EDDL 131420Z AUTO 22009KT 190V250 9999 FEW049 24/14 Q1021 NOSIG
15:50
V
23 °C 10 km+ - 210° 210° 12 kt METAR EDDL 131350Z AUTO 21012KT 9999 FEW047 23/13 Q1021 NOSIG
15:20
V
23 °C 10 km+ - 210° 210° 11 kt METAR EDDL 131320Z AUTO 21011KT 180V240 9999 FEW044 23/14 Q1022 NOSIG
14:50
V
23 °C 10 km+ - 210° 210° 16 kt METAR EDDL 131250Z AUTO 21016KT CAVOK 23/14 Q1023 TEMPO 22015G25KT
14:20
V
23 °C 10 km+ - 220° 220° 17 kt METAR EDDL 131220Z AUTO 22017KT CAVOK 23/13 Q1023 NOSIG
13:50
V
22 °C 10 km+ - 220° 220° 15 kt METAR EDDL 131150Z AUTO 22015KT 180V250 9999 FEW036 22/13 Q1024 TEMPO 23015G25KT
13:20
V
22 °C 10 km+ - 220° 220° 15 kt METAR EDDL 131120Z AUTO 22015KT 9999 FEW036 22/14 Q1024 TEMPO 23015G25KT
12:50
V
22 °C 10 km+ - 210° 210° 16 kt METAR EDDL 131050Z AUTO 21016KT 9999 FEW035 22/14 Q1025 TEMPO 23015G25KT
12:20
V
21 °C 10 km+ - 210° 210° 14 kt METAR EDDL 131020Z AUTO 21014KT 9999 FEW030 21/14 Q1025 NOSIG
11:50
V
20 °C 10 km+ - 190° 190° 10 kt METAR EDDL 130950Z AUTO 19010KT CAVOK 20/14 Q1026 NOSIG
11:20
V
19 °C 10 km+ - 180° 180° 11 kt METAR EDDL 130920Z AUTO 18011KT CAVOK 19/14 Q1026 NOSIG
10:50
V
18 °C 10 km+ - 190° 190° 9 kt METAR EDDL 130850Z AUTO 19009KT 160V220 CAVOK 18/13 Q1026 BECMG 21015KT
10:20
V
18 °C 10 km+ - 190° 190° 9 kt METAR EDDL 130820Z AUTO 19009KT 150V220 CAVOK 18/13 Q1026 BECMG 21015KT
09:50
V
17 °C 10 km+ - 170° 170° 7 kt METAR EDDL 130750Z AUTO 17007KT CAVOK 17/13 Q1026 BECMG 21013KT
09:20
V
15 °C 10 km+ - 160° 160° 7 kt METAR EDDL 130720Z AUTO 16007KT CAVOK 15/12 Q1027 BECMG 21013KT
08:50
V
15 °C 10 km+ - 160° 160° 7 kt METAR EDDL 130650Z AUTO 16007KT CAVOK 15/12 Q1027 BECMG 21013KT
08:20
V
14 °C 10 km+ - 150° 150° 8 kt METAR EDDL 130620Z AUTO 15008KT CAVOK 14/12 Q1027 BECMG 21013KT
07:50
V
13 °C 10 km+ - 160° 160° 8 kt METAR EDDL 130550Z AUTO 16008KT CAVOK 13/11 Q1027 NOSIG
07:20
V
13 °C 10 km+ - 160° 160° 9 kt METAR EDDL 130520Z AUTO 16009KT CAVOK 13/11 Q1027 NOSIG
06:50
V
12 °C 10 km+ - 160° 160° 9 kt METAR EDDL 130450Z AUTO 16009KT CAVOK 12/11 Q1027 NOSIG
06:20
V
13 °C 10 km+ - 160° 160° 9 kt METAR EDDL 130420Z AUTO 16009KT CAVOK 13/11 Q1027 NOSIG
05:50
V
12 °C 10 km+ - 160° 160° 9 kt METAR EDDL 130350Z AUTO 16009KT CAVOK 12/11 Q1027 NOSIG
05:20
V
13 °C 10 km+ - 170° 170° 6 kt METAR EDDL 130320Z AUTO 17006KT 140V200 CAVOK 13/11 Q1027 NOSIG
04:50
V
13 °C 10 km+ - 170° 170° 5 kt METAR EDDL 130250Z AUTO 17005KT 140V200 CAVOK 13/11 Q1027 NOSIG
04:20
V
13 °C 10 km+ - 160° 160° 8 kt METAR EDDL 130220Z AUTO 16008KT CAVOK 13/11 Q1027 NOSIG
03:50
V
13 °C 10 km+ - 160° 160° 6 kt METAR EDDL 130150Z AUTO 16006KT CAVOK 13/11 Q1027 NOSIG
03:20
V
13 °C 10 km+ - 170° 170° 6 kt METAR EDDL 130120Z AUTO 17006KT CAVOK 13/11 Q1027 NOSIG
02:50
V
14 °C 10 km+ - 160° 160° 7 kt METAR EDDL 130050Z AUTO 16007KT CAVOK 14/12 Q1028 NOSIG
02:20
V
15 °C 10 km+ - 170° 170° 8 kt METAR EDDL 130020Z AUTO 17008KT CAVOK 15/12 Q1028 NOSIG
01:50
V
14 °C 10 km+ - 180° 180° 6 kt METAR EDDL 122350Z AUTO 18006KT CAVOK 14/12 Q1028 NOSIG
01:20
V
14 °C 10 km+ - 210° 210° 8 kt METAR EDDL 122320Z AUTO 21008KT CAVOK 14/12 Q1028 NOSIG
00:50
V
14 °C 10 km+ - 210° 210° 8 kt METAR EDDL 122250Z AUTO 21008KT CAVOK 14/12 Q1028 NOSIG
00:20
V
15 °C 10 km+ - 210° 210° 8 kt METAR EDDL 122220Z AUTO 21008KT CAVOK 15/12 Q1028 NOSIG

April 12, 2024

Time Code Weather Temp. Visibility Ceiling Wind METAR/SPECI
23:50
V
15 °C 10 km+ - 220° 220° 9 kt METAR EDDL 122150Z AUTO 22009KT 9999 FEW039 15/12 Q1028 NOSIG
23:20
V
16 °C 10 km+ 4,700 ft 220° 220° 9 kt METAR EDDL 122120Z AUTO 22009KT 9999 BKN047 16/12 Q1028 NOSIG
22:50
V
16 °C 10 km+ - 210° 210° 7 kt METAR EDDL 122050Z AUTO 21007KT 9999 SCT047 16/12 Q1028 NOSIG
22:20
V
16 °C 10 km+ - 220° 220° 9 kt METAR EDDL 122020Z AUTO 22009KT CAVOK 16/12 Q1028 NOSIG
21:50
V
17 °C 10 km+ - 210° 210° 10 kt METAR EDDL 121950Z AUTO 21010KT 9999 FEW043 17/12 Q1028 NOSIG
21:20
V
17 °C 10 km+ - 210° 210° 9 kt METAR EDDL 121920Z AUTO 21009KT 9999 SCT046 17/13 Q1028 NOSIG
20:50
V
18 °C 10 km+ - 210° 210° 10 kt METAR EDDL 121850Z AUTO 21010KT CAVOK 18/13 Q1028 NOSIG
20:20
V
17 °C 10 km+ - 220° 220° 10 kt METAR EDDL 121820Z AUTO 22010KT CAVOK 17/13 Q1028 NOSIG
19:50
V
18 °C 10 km+ - 220° 220° 10 kt METAR EDDL 121750Z AUTO 22010KT CAVOK 18/13 Q1028 NOSIG
19:20
V
19 °C 10 km+ - 220° 220° 12 kt METAR EDDL 121720Z AUTO 22012KT 9999 FEW041 19/13 Q1028 NOSIG
18:50
V
19 °C 10 km+ - 220° 220° 11 kt METAR EDDL 121650Z AUTO 22011KT CAVOK 19/13 Q1028 NOSIG
18:20
V
19 °C 10 km+ - 220° 220° 11 kt METAR EDDL 121620Z AUTO 22011KT CAVOK 19/13 Q1029 NOSIG
17:50
V
20 °C 10 km+ - 220° 220° 10 kt METAR EDDL 121550Z AUTO 22010KT CAVOK 20/13 Q1029 NOSIG
17:20
V
20 °C 10 km+ - 220° 220° 13 kt METAR EDDL 121520Z AUTO 22013KT CAVOK 20/13 Q1029 NOSIG
16:50
V
20 °C 10 km+ - 230° 230° 11 kt METAR EDDL 121450Z AUTO 23011KT 200V260 9999 FEW041 20/13 Q1029 NOSIG
16:20
V
20 °C 10 km+ - 220° 220° 9 kt METAR EDDL 121420Z AUTO 22009KT 9999 SCT038 SCT045 20/12 Q1030 NOSIG
15:50
V
19 °C 10 km+ 3,700 ft 230° 230° 9 kt METAR EDDL 121350Z AUTO 23009KT 9999 BKN037 OVC045 19/13 Q1030 NOSIG
15:20
V
19 °C 10 km+ 4,600 ft 240° 240° 12 kt METAR EDDL 121320Z AUTO 24012KT 9999 FEW034 BKN046 19/13 Q1030 NOSIG
14:50
V
19 °C 10 km+ 3,300 ft 230° 230° 11 kt METAR EDDL 121250Z AUTO 23011KT 9999 BKN033 BKN043 19/13 Q1030 NOSIG
14:20
V
19 °C 10 km+ 3,300 ft 220° 220° 15 kt METAR EDDL 121220Z AUTO 22015KT 9999 BKN033 BKN042 19/13 Q1031 NOSIG
13:50
V
19 °C 10 km+ 4,200 ft 220° 220° 12 kt METAR EDDL 121150Z AUTO 22012KT 9999 BKN042 OVC049 19/14 Q1031 NOSIG
13:20
V
18 °C 10 km+ 3,900 ft 210° 210° 11 kt METAR EDDL 121120Z AUTO 21011KT 9999 BKN039 18/13 Q1031 NOSIG
12:50
V
18 °C 10 km+ 3,700 ft 220° 220° 10 kt METAR EDDL 121050Z AUTO 22010KT 9999 FEW023 OVC037 18/13 Q1031 NOSIG
12:20
V
17 °C 10 km+ 3,400 ft 210° 210° 9 kt METAR EDDL 121020Z AUTO 21009KT 9999 FEW019 OVC034 17/13 Q1032 NOSIG
11:50
V
16 °C 10 km+ 3,600 ft 200° 200° 8 kt METAR EDDL 120950Z AUTO 20008KT 9999 FEW018 OVC036 16/13 Q1032 NOSIG
11:20
V
16 °C 10 km+ 3,500 ft 190° 190° 9 kt METAR EDDL 120920Z AUTO 19009KT 9999 SCT017 OVC035 16/13 Q1032 NOSIG
10:50
M
16 °C 10 km+ 1,600 ft 190° 190° 9 kt METAR EDDL 120850Z AUTO 19009KT 9999 BKN016 OVC034 16/13 Q1032 NOSIG
10:20
M
15 °C 10 km+ 2,500 ft 180° 180° 9 kt METAR EDDL 120820Z AUTO 18009KT 9999 SCT014 BKN025 OVC034 15/12 Q1032 NOSIG
09:50
M
15 °C 10 km+ 2,100 ft 190° 190° 9 kt METAR EDDL 120750Z AUTO 19009KT 150V210 9999 SCT014 BKN021 OVC032 15/12 Q1032 TEMPO BKN014
09:20
M
14 °C 10 km+ 1,600 ft 180° 180° 9 kt METAR EDDL 120720Z AUTO 18009KT 9999 BKN016 OVC021 14/12 Q1031 NOSIG
08:50
M
14 °C 10 km+ 1,900 ft 180° 180° 9 kt METAR EDDL 120650Z AUTO 18009KT 9999 OVC019 14/12 Q1031 NOSIG
08:20
M
14 °C 10 km+ 1,700 ft 180° 180° 7 kt METAR EDDL 120620Z AUTO 18007KT 9999 OVC017 14/12 Q1032 NOSIG
07:50
M
13 °C 10 km+ 1,600 ft 200° 200° 7 kt METAR EDDL 120550Z AUTO 20007KT 9999 BKN016 13/12 Q1032 NOSIG
Report a change